Terminal Aerodrome Forecast
Issued by NWS Blacksburg, VA

Home | Current Version | Previous Version | Text Only | Print | Product List | Glossary On
Versions: 1 2 3 4 5 6 7 8 9 10 11 12 13 14 15 16 17 18 19 20 21 22 23 24 25 26 27 28 29 30 31 32 33 34 35 36 37 38
000
FTUS41 KRNK 281721
TAFROA
TAF
KROA 281721Z 2818/2918 00000KT P6SM VCTS SCT025 BKN040CB
     FM290200 VRB03KT P6SM -SHRA SCT040 BKN080
     FM290900 00000KT 6SM BR BKN025 BKN100
     FM291400 20004KT P6SM BKN050=

USA.gov is the U.S. government's official web portal to all federal, state and local government web resources and services.